createdAt,value
2022-11-21T00:01:30.214Z,6.19
2022-11-21T00:03:32.779Z,6.08
2022-11-21T00:05:35.503Z,6.15
2022-11-21T00:07:38.305Z,6.08
2022-11-21T00:09:42.290Z,6.18
2022-11-21T00:11:44.902Z,6.14
2022-11-21T00:13:47.502Z,6.19
2022-11-21T00:15:50.091Z,6.19
2022-11-21T00:17:53.513Z,6.20
2022-11-21T00:19:56.149Z,6.09
2022-11-21T00:21:58.704Z,6.12
2022-11-21T00:24:01.289Z,6.01
2022-11-21T00:26:09.932Z,6.09
2022-11-21T00:28:12.498Z,6.20
2022-11-21T00:30:15.831Z,6.01
2022-11-21T00:32:18.464Z,5.95
2022-11-21T00:34:21.068Z,6.08
2022-11-21T00:36:23.739Z,6.00
2022-11-21T00:38:28.026Z,5.98
2022-11-21T00:40:30.619Z,5.96
2022-11-21T00:42:34.567Z,5.94
2022-11-21T00:44:37.204Z,6.05
2022-11-21T00:46:39.797Z,6.02
2022-11-21T00:48:42.432Z,5.98
2022-11-21T00:50:45.032Z,5.98
2022-11-21T00:52:47.665Z,5.93
2022-11-21T00:54:50.217Z,5.87
2022-11-21T00:56:53.021Z,5.97
2022-11-21T00:58:56.974Z,5.99
2022-11-21T01:01:07.480Z,6.24
2022-11-21T01:03:10.123Z,6.07
2022-11-21T01:05:12.714Z,6.17
2022-11-21T01:07:15.948Z,6.10
2022-11-21T01:09:18.685Z,6.12
2022-11-21T01:11:22.330Z,6.02
2022-11-21T01:13:24.953Z,6.10
2022-11-21T01:15:29.139Z,6.02
2022-11-21T01:17:33.241Z,6.10
2022-11-21T01:19:35.942Z,6.04
2022-11-21T01:21:38.544Z,5.93
2022-11-21T01:23:41.213Z,5.98
2022-11-21T01:25:43.864Z,6.07
2022-11-21T01:27:46.496Z,6.18
2022-11-21T01:29:49.174Z,6.19
2022-11-21T01:31:53.096Z,6.12
2022-11-21T01:33:56.116Z,6.08
2022-11-21T01:35:58.748Z,5.99
2022-11-21T01:38:01.370Z,6.08
2022-11-21T01:40:04.769Z,6.09
2022-11-21T01:42:07.405Z,6.09
2022-11-21T01:44:18.878Z,6.11
2022-11-21T01:46:23.120Z,6.10
2022-11-21T01:48:31.151Z,6.21
2022-11-21T01:50:33.759Z,6.33
2022-11-21T01:52:36.396Z,6.22
2022-11-21T01:54:43.611Z,6.31
2022-11-21T01:56:50.183Z,6.25
2022-11-21T01:58:54.331Z,6.35
2022-11-21T02:00:57.268Z,6.44
2022-11-21T02:03:03.600Z,6.27
2022-11-21T02:05:12.461Z,6.32
2022-11-21T02:07:17.146Z,6.29
2022-11-21T02:09:21.083Z,6.20
2022-11-21T02:11:31.513Z,6.15
2022-11-21T02:13:48.039Z,6.12
2022-11-21T02:15:50.836Z,6.07
2022-11-21T02:17:53.458Z,6.15
2022-11-21T02:19:58.738Z,6.11
2022-11-21T02:22:09.301Z,6.08
2022-11-21T02:24:19.041Z,6.22
2022-11-21T02:26:23.143Z,6.13
2022-11-21T02:28:26.933Z,6.21
2022-11-21T02:30:30.550Z,6.08
2022-11-21T02:32:35.210Z,6.10
2022-11-21T02:34:37.806Z,6.09
2022-11-21T02:36:43.854Z,6.13
2022-11-21T02:38:46.545Z,6.30
2022-11-21T02:40:54.160Z,6.27
2022-11-21T02:43:11.637Z,6.19
2022-11-21T02:45:20.076Z,6.11
2022-11-21T02:47:23.680Z,6.04
2022-11-21T02:49:36.104Z,5.98
2022-11-21T02:51:38.726Z,6.09
2022-11-21T02:53:41.358Z,6.05
2022-11-21T02:55:44.389Z,6.06
2022-11-21T02:57:47.008Z,5.95
2022-11-21T02:59:51.154Z,6.05
2022-11-21T03:01:53.818Z,5.99
2022-11-21T03:03:56.422Z,5.98
2022-11-21T03:05:59.009Z,5.90
2022-11-21T03:08:03.142Z,5.91
2022-11-21T03:10:06.580Z,5.93
2022-11-21T03:12:10.164Z,5.94
2022-11-21T03:14:12.774Z,5.86
2022-11-21T03:16:16.721Z,6.13
2022-11-21T03:18:19.281Z,6.16
2022-11-21T03:20:21.942Z,6.07
2022-11-21T03:22:24.886Z,6.14
2022-11-21T03:24:27.739Z,6.08
2022-11-21T03:26:30.518Z,6.32
2022-11-21T03:28:33.140Z,6.12
2022-11-21T03:30:35.773Z,6.29
2022-11-21T03:32:39.697Z,6.21
2022-11-21T03:34:42.623Z,6.02
2022-11-21T03:36:45.204Z,6.01
2022-11-21T03:38:47.872Z,6.08
2022-11-21T03:40:50.505Z,6.19
2022-11-21T03:42:53.102Z,6.11
2022-11-21T03:44:55.710Z,6.16
2022-11-21T03:46:58.282Z,6.00
2022-11-21T03:49:02.423Z,5.90
2022-11-21T03:51:08.025Z,6.00
2022-11-21T03:53:10.716Z,6.06
2022-11-21T03:55:16.326Z,5.92
2022-11-21T03:57:18.936Z,5.89
2022-11-21T03:59:21.627Z,5.86
2022-11-21T04:01:25.094Z,5.99
2022-11-21T04:03:27.747Z,5.96
2022-11-21T04:05:31.687Z,5.99
2022-11-21T04:07:34.377Z,6.08
2022-11-21T04:09:36.992Z,5.98
2022-11-21T04:11:39.561Z,5.90
2022-11-21T04:13:42.283Z,5.96
2022-11-21T04:15:45.547Z,5.99
2022-11-21T04:17:48.134Z,6.04
2022-11-21T04:19:50.737Z,6.04
2022-11-21T04:21:54.650Z,6.07
2022-11-21T04:23:57.227Z,6.19
2022-11-21T04:26:00.219Z,6.07
2022-11-21T04:28:04.750Z,6.05
2022-11-21T04:30:08.126Z,6.06
2022-11-21T04:32:10.740Z,6.17
2022-11-21T04:34:13.315Z,6.13
2022-11-21T04:36:15.968Z,5.95
2022-11-21T04:38:19.892Z,5.86
2022-11-21T04:40:22.604Z,5.88
2022-11-21T04:42:25.430Z,5.83
2022-11-21T04:44:28.565Z,5.90
2022-11-21T04:46:31.397Z,5.86
2022-11-21T04:48:34.002Z,5.71
2022-11-21T04:50:36.594Z,5.69
2022-11-21T04:52:39.457Z,5.68
2022-11-21T04:54:43.416Z,5.61
2022-11-21T04:56:45.985Z,5.65
2022-11-21T04:58:48.602Z,5.70
2022-11-21T05:00:51.253Z,5.59
2022-11-21T05:02:53.929Z,5.68
2022-11-21T05:04:56.536Z,5.87
2022-11-21T05:06:59.185Z,5.87
2022-11-21T05:09:01.908Z,5.76
2022-11-21T05:11:23.501Z,5.72
2022-11-21T05:13:26.144Z,5.66
2022-11-21T05:15:28.789Z,5.72
2022-11-21T05:17:31.458Z,5.61
2022-11-21T05:19:34.121Z,5.64
2022-11-21T05:21:36.808Z,5.56
2022-11-21T05:23:39.480Z,5.61
2022-11-21T05:25:42.560Z,5.64
2022-11-21T05:27:46.537Z,5.78
2022-11-21T05:29:49.206Z,5.74
2022-11-21T05:31:51.879Z,5.70
2022-11-21T05:33:54.468Z,5.53
2022-11-21T05:35:57.173Z,5.52
2022-11-21T05:37:59.971Z,5.65
2022-11-21T05:40:02.704Z,5.50
2022-11-21T05:42:05.444Z,5.53
2022-11-21T05:44:08.445Z,5.50
2022-11-21T05:46:11.075Z,5.65
2022-11-21T05:48:13.656Z,5.75
2022-11-21T05:50:16.491Z,5.80
2022-11-21T05:52:19.104Z,5.70
2022-11-21T05:54:21.750Z,5.63
2022-11-21T05:56:24.354Z,5.50
2022-11-21T05:58:27.004Z,5.49
2022-11-21T06:00:31.313Z,5.42
2022-11-21T06:02:51.488Z,5.39
2022-11-21T06:04:54.125Z,5.41
2022-11-21T06:06:56.722Z,5.42
2022-11-21T06:08:59.322Z,5.38
2022-11-21T06:11:02.092Z,5.49
2022-11-21T06:13:21.845Z,5.51
2022-11-21T06:15:24.481Z,5.49
2022-11-21T06:17:28.412Z,5.38
2022-11-21T06:19:30.991Z,5.40
2022-11-21T06:21:37.261Z,5.34
2022-11-21T06:23:39.910Z,5.36
2022-11-21T06:25:43.565Z,5.33
2022-11-21T06:27:46.165Z,5.31
2022-11-21T06:29:48.807Z,5.29
2022-11-21T06:31:51.706Z,5.28
2022-11-21T06:33:57.261Z,5.35
2022-11-21T06:36:02.972Z,5.33
2022-11-21T06:38:05.616Z,5.32
2022-11-21T06:40:09.179Z,5.41
2022-11-21T06:42:11.866Z,5.36
2022-11-21T06:44:14.471Z,5.35
2022-11-21T06:46:17.699Z,5.35
2022-11-21T06:48:20.296Z,5.40
2022-11-21T06:50:24.229Z,5.44
2022-11-21T06:52:26.793Z,5.42
2022-11-21T06:54:30.036Z,5.37
2022-11-21T06:56:33.466Z,5.43
2022-11-21T06:58:36.429Z,5.44
2022-11-21T07:00:39.059Z,5.36
2022-11-21T07:02:41.722Z,5.39
2022-11-21T07:04:44.370Z,5.35
2022-11-21T07:06:48.370Z,5.35
2022-11-21T07:09:17.502Z,5.37
2022-11-21T07:11:25.302Z,5.39
2022-11-21T07:13:28.497Z,5.50
2022-11-21T07:15:31.095Z,5.47
2022-11-21T07:17:33.689Z,5.64
2022-11-21T07:19:40.622Z,5.52
2022-11-21T07:21:44.074Z,5.70
2022-11-21T07:23:48.640Z,5.68
2022-11-21T07:25:51.226Z,5.61
2022-11-21T07:27:53.843Z,5.72
2022-11-21T07:29:57.435Z,5.71
2022-11-21T07:32:00.070Z,5.71
2022-11-21T07:34:02.686Z,5.90
2022-11-21T07:36:05.884Z,5.90
2022-11-21T07:38:08.443Z,5.84
2022-11-21T07:40:13.654Z,6.35
2022-11-21T07:42:16.244Z,6.12
2022-11-21T07:44:18.880Z,6.15
2022-11-21T07:46:21.506Z,6.02
2022-11-21T07:48:24.100Z,5.97
2022-11-21T07:50:26.779Z,6.02
2022-11-21T07:52:30.331Z,5.86
2022-11-21T07:54:32.935Z,5.99
2022-11-21T07:56:36.867Z,5.82
2022-11-21T07:58:39.499Z,5.90
2022-11-21T08:00:43.687Z,5.80
2022-11-21T08:02:46.311Z,5.88
2022-11-21T08:04:49.143Z,5.81
2022-11-21T08:06:51.762Z,5.89
2022-11-21T08:08:54.807Z,5.83
2022-11-21T08:10:57.580Z,5.81
2022-11-21T08:13:03.952Z,5.84
2022-11-21T08:15:08.584Z,5.90
2022-11-21T08:17:11.398Z,6.02
2022-11-21T08:19:13.970Z,5.97
2022-11-21T08:21:19.761Z,5.97
2022-11-21T08:23:22.788Z,6.02
2022-11-21T08:25:25.722Z,6.06
2022-11-21T08:27:29.262Z,6.10
2022-11-21T08:29:33.207Z,6.06
2022-11-21T08:31:35.798Z,6.27
2022-11-21T08:33:38.434Z,6.12
2022-11-21T08:35:42.182Z,6.14
2022-11-21T08:37:44.815Z,6.19
2022-11-21T08:39:47.384Z,6.35
2022-11-21T08:42:05.413Z,6.25
2022-11-21T08:44:13.629Z,6.25
2022-11-21T08:46:18.612Z,6.48
2022-11-21T08:48:21.194Z,6.53
2022-11-21T08:50:24.407Z,6.53
2022-11-21T08:52:27.030Z,6.47
2022-11-21T08:54:29.832Z,6.35
2022-11-21T08:56:32.727Z,6.60
2022-11-21T08:58:35.410Z,6.55
2022-11-21T09:00:37.985Z,6.50
2022-11-21T09:02:41.999Z,6.55
2022-11-21T09:04:44.611Z,6.57
2022-11-21T09:06:48.069Z,6.53
2022-11-21T09:08:50.762Z,6.53
2022-11-21T09:10:53.591Z,6.71
2022-11-21T09:12:58.834Z,7.01
2022-11-21T09:15:19.117Z,7.03
2022-11-21T09:17:39.050Z,6.89
2022-11-21T09:19:42.996Z,7.12
2022-11-21T09:21:46.001Z,7.14
2022-11-21T09:23:49.030Z,7.12
2022-11-21T09:25:51.682Z,7.00
2022-11-21T09:27:54.270Z,7.17
2022-11-21T09:29:56.864Z,7.00
2022-11-21T09:31:59.463Z,7.16
2022-11-21T09:34:02.047Z,7.02
2022-11-21T09:36:06.407Z,7.14
2022-11-21T09:38:09.181Z,7.01
2022-11-21T09:40:14.533Z,7.01
2022-11-21T09:42:46.522Z,7.11
2022-11-21T09:45:04.563Z,6.98
2022-11-21T09:47:19.894Z,6.92
2022-11-21T09:49:26.838Z,6.96
2022-11-21T09:51:32.337Z,7.12
2022-11-21T09:53:37.685Z,7.09
2022-11-21T09:55:45.022Z,7.12
2022-11-21T09:57:49.840Z,7.34
2022-11-21T09:59:53.473Z,7.17
2022-11-21T10:01:56.661Z,7.40
2022-11-21T10:04:02.854Z,7.21
2022-11-21T10:06:15.173Z,7.13
2022-11-21T10:08:30.612Z,7.12
2022-11-21T10:10:50.273Z,7.43
2022-11-21T10:13:05.656Z,7.33
2022-11-21T10:15:23.611Z,7.32
2022-11-21T10:17:31.698Z,7.23
2022-11-21T10:19:49.298Z,7.40
2022-11-21T10:22:09.219Z,7.59
2022-11-21T10:24:30.311Z,7.54
2022-11-21T10:26:43.006Z,7.54
2022-11-21T10:28:52.560Z,7.56
2022-11-21T10:31:00.039Z,7.55
2022-11-21T10:33:05.511Z,7.56
2022-11-21T10:35:16.301Z,7.45
2022-11-21T10:37:29.620Z,7.47
2022-11-21T10:39:39.637Z,7.55
2022-11-21T10:41:50.518Z,7.43
2022-11-21T10:44:22.903Z,7.66
2022-11-21T10:46:25.592Z,7.51
2022-11-21T10:48:28.197Z,7.55
2022-11-21T10:50:43.868Z,7.66
2022-11-21T10:52:49.640Z,7.67
2022-11-21T10:55:11.003Z,7.74
2022-11-21T10:57:16.225Z,7.84
2022-11-21T10:59:30.418Z,7.96
2022-11-21T11:01:36.369Z,7.96
2022-11-21T11:03:38.965Z,7.96
2022-11-21T11:05:43.825Z,7.89
2022-11-21T11:08:01.217Z,7.94
2022-11-21T11:10:27.537Z,8.00
2022-11-21T11:12:45.882Z,8.11
2022-11-21T11:14:52.415Z,8.12
2022-11-21T11:16:55.178Z,8.11
2022-11-21T11:19:01.198Z,8.17
2022-11-21T11:21:16.647Z,8.27
2022-11-21T11:23:28.461Z,8.49
2022-11-21T11:25:35.021Z,8.25
2022-11-21T11:27:38.589Z,8.20
2022-11-21T11:29:53.205Z,8.33
2022-11-21T11:31:58.482Z,8.16
2022-11-21T11:34:01.147Z,8.11
2022-11-21T11:36:14.219Z,8.22
2022-11-21T11:38:18.584Z,8.05
2022-11-21T11:40:29.431Z,7.98
2022-11-21T11:43:23.774Z,7.95
2022-11-21T11:46:07.320Z,7.89
2022-11-21T11:48:11.207Z,7.90
2022-11-21T11:50:20.073Z,7.87
2022-11-21T11:52:26.856Z,7.89
2022-11-21T11:54:35.992Z,8.06
2022-11-21T11:56:39.318Z,8.21
2022-11-21T11:58:47.257Z,8.26
2022-11-21T12:00:56.635Z,8.38
2022-11-21T12:03:05.011Z,8.42
2022-11-21T12:05:16.619Z,8.36
2022-11-21T12:09:51.858Z,8.50
2022-11-21T12:12:08.806Z,8.51
2022-11-21T12:14:55.687Z,8.74
2022-11-21T12:16:58.511Z,8.84
2022-11-21T12:19:04.081Z,8.76
2022-11-21T12:21:13.098Z,8.86
2022-11-21T12:23:17.083Z,8.75
2022-11-21T12:25:24.683Z,8.76
2022-11-21T12:27:32.311Z,8.67
2022-11-21T12:29:51.382Z,8.65
2022-11-21T12:32:12.611Z,8.71
2022-11-21T12:34:31.562Z,8.73
2022-11-21T12:36:39.841Z,8.73
2022-11-21T12:38:53.718Z,8.76
2022-11-21T12:41:27.672Z,8.81
2022-11-21T12:43:40.894Z,8.89
2022-11-21T12:45:49.747Z,8.92
2022-11-21T12:48:33.124Z,8.97
2022-11-21T12:51:02.045Z,8.99
2022-11-21T12:53:30.471Z,9.07
2022-11-21T12:55:38.994Z,8.89
2022-11-21T12:57:56.004Z,8.87
2022-11-21T13:00:09.010Z,8.85
2022-11-21T13:02:25.849Z,8.82
2022-11-21T13:04:31.917Z,8.92
2022-11-21T13:06:40.280Z,8.95
2022-11-21T13:08:45.229Z,9.00
2022-11-21T13:11:14.510Z,9.08
2022-11-21T13:13:23.139Z,8.99
2022-11-21T13:15:35.432Z,9.01
2022-11-21T13:17:49.529Z,9.08
2022-11-21T13:19:56.462Z,9.17
2022-11-21T13:21:59.080Z,9.17
2022-11-21T13:24:01.733Z,9.25
2022-11-21T13:26:42.689Z,9.26
2022-11-21T13:28:47.771Z,9.25
2022-11-21T13:30:52.235Z,9.24
2022-11-21T13:32:56.601Z,9.25
2022-11-21T13:34:59.197Z,9.26
2022-11-21T13:37:01.822Z,9.23
2022-11-21T13:39:35.967Z,9.12
2022-11-21T13:42:20.375Z,9.10
2022-11-21T13:44:40.659Z,9.02
2022-11-21T13:46:59.451Z,9.06
2022-11-21T13:49:18.166Z,8.97
2022-11-21T13:51:48.335Z,8.83
2022-11-21T13:54:10.644Z,8.88
2022-11-21T13:56:26.426Z,8.87
2022-11-21T13:58:42.839Z,8.86
2022-11-21T14:01:08.458Z,8.84
2022-11-21T14:03:37.268Z,8.85
2022-11-21T14:05:57.719Z,8.95
2022-11-21T14:08:14.467Z,8.94
2022-11-21T14:10:30.997Z,8.90
2022-11-21T14:12:41.239Z,8.87
2022-11-21T14:14:52.670Z,8.85
2022-11-21T14:17:11.381Z,8.86
2022-11-21T14:19:15.441Z,8.83
2022-11-21T14:21:26.498Z,8.83
2022-11-21T14:23:31.481Z,8.81
2022-11-21T14:25:42.660Z,8.83
2022-11-21T14:27:49.882Z,8.83
2022-11-21T14:29:52.604Z,8.81
2022-11-21T14:31:55.715Z,8.80
2022-11-21T14:33:59.160Z,8.80
2022-11-21T14:36:05.432Z,8.77
2022-11-21T14:38:09.566Z,8.75
2022-11-21T14:40:15.103Z,8.75
2022-11-21T14:42:18.163Z,8.74
2022-11-21T14:44:22.752Z,8.71
2022-11-21T14:46:27.234Z,8.71
2022-11-21T14:48:31.128Z,8.69
2022-11-21T14:50:36.076Z,8.69
2022-11-21T14:52:38.747Z,8.68
2022-11-21T14:55:13.393Z,8.68
2022-11-21T14:57:21.706Z,8.63
2022-11-21T14:59:26.558Z,8.59
2022-11-21T15:01:30.875Z,8.57
2022-11-21T15:03:33.899Z,8.54
2022-11-21T15:08:17.193Z,8.49
2022-11-21T15:10:30.664Z,8.45
2022-11-21T15:12:48.142Z,8.40
2022-11-21T15:14:55.607Z,8.36
2022-11-21T15:17:00.317Z,8.32
2022-11-21T15:19:09.241Z,8.27
2022-11-21T15:21:16.877Z,8.24
2022-11-21T15:23:28.167Z,8.20
2022-11-21T15:25:45.385Z,8.15
2022-11-21T15:27:49.374Z,8.11
2022-11-21T15:30:02.321Z,8.07
2022-11-21T15:32:12.609Z,8.03
2022-11-21T15:34:35.498Z,8.02
2022-11-21T15:36:38.997Z,7.95
2022-11-21T15:38:47.036Z,7.91
2022-11-21T15:41:06.009Z,7.86
2022-11-21T15:43:10.034Z,7.84
2022-11-21T15:45:25.239Z,7.79
2022-11-21T15:47:28.485Z,7.75
2022-11-21T15:49:33.705Z,7.71
2022-11-21T15:52:05.570Z,7.66
2022-11-21T15:54:00.860Z,7.60
2022-11-21T15:56:05.026Z,7.59
2022-11-21T15:58:07.598Z,7.54
2022-11-21T16:00:11.617Z,7.51
2022-11-21T16:02:15.208Z,7.48
2022-11-21T16:04:21.072Z,7.45
2022-11-21T16:06:26.768Z,7.45
2022-11-21T16:08:29.377Z,7.38
2022-11-21T16:10:32.033Z,7.35
2022-11-21T16:12:36.074Z,7.27
2022-11-21T16:14:38.677Z,7.25
2022-11-21T16:16:43.611Z,7.21
2022-11-21T16:18:46.986Z,7.15
2022-11-21T16:20:49.782Z,7.14
2022-11-21T16:22:52.418Z,7.12
2022-11-21T16:24:55.014Z,7.07
2022-11-21T16:26:57.603Z,7.05
2022-11-21T16:29:05.290Z,7.03
2022-11-21T16:31:08.113Z,6.98
2022-11-21T16:33:10.792Z,6.94
2022-11-21T16:35:13.408Z,6.79
2022-11-21T16:37:16.012Z,6.77
2022-11-21T16:39:18.811Z,6.74
2022-11-21T16:41:23.533Z,6.73
2022-11-21T16:43:26.579Z,6.73
2022-11-21T16:45:33.577Z,6.73
2022-11-21T16:47:38.127Z,6.74
2022-11-21T16:49:45.048Z,6.69
2022-11-21T16:51:47.661Z,6.68
2022-11-21T16:53:50.803Z,6.67
2022-11-21T16:56:00.993Z,6.66
2022-11-21T16:58:03.915Z,6.66
2022-11-21T17:00:07.947Z,6.66
2022-11-21T17:02:14.671Z,6.64
2022-11-21T17:04:17.802Z,6.69
2022-11-21T17:06:22.401Z,6.69
2022-11-21T17:08:25.117Z,6.73
2022-11-21T17:10:46.281Z,6.74
2022-11-21T17:12:49.176Z,6.78
2022-11-21T17:14:52.052Z,6.85
2022-11-21T17:16:54.626Z,6.85
2022-11-21T17:19:00.311Z,6.89
2022-11-21T17:21:04.684Z,6.89
2022-11-21T17:23:07.281Z,6.93
2022-11-21T17:25:10.713Z,6.96
2022-11-21T17:27:13.282Z,6.99
2022-11-21T17:29:16.015Z,6.96
2022-11-21T17:31:19.085Z,6.98
2022-11-21T17:33:21.851Z,7.00
2022-11-21T17:35:25.865Z,7.00
2022-11-21T17:37:28.455Z,7.00
2022-11-21T17:39:31.470Z,7.03
2022-11-21T17:41:34.277Z,7.17
2022-11-21T17:43:36.940Z,7.12
2022-11-21T17:45:39.535Z,7.07
2022-11-21T17:47:42.261Z,7.07
2022-11-21T17:49:45.000Z,7.19
2022-11-21T17:51:52.480Z,7.18
2022-11-21T17:53:59.365Z,7.22
2022-11-21T17:56:03.782Z,7.21
2022-11-21T17:58:06.412Z,7.24
2022-11-21T18:00:10.323Z,7.34
2022-11-21T18:02:13.148Z,7.22
2022-11-21T18:04:17.714Z,7.25
2022-11-21T18:06:20.436Z,7.38
2022-11-21T18:08:24.425Z,7.43
2022-11-21T18:10:42.882Z,7.30
2022-11-21T18:12:46.235Z,7.28
2022-11-21T18:14:48.849Z,7.28
2022-11-21T18:16:53.573Z,7.33
2022-11-21T18:18:56.844Z,7.31
2022-11-21T18:21:03.459Z,7.27
2022-11-21T18:23:06.082Z,7.30
2022-11-21T18:25:10.514Z,7.29
2022-11-21T18:27:13.162Z,7.31
2022-11-21T18:31:39.070Z,7.36
2022-11-21T18:33:42.697Z,7.36
2022-11-21T18:35:45.339Z,7.52
2022-11-21T18:37:47.981Z,7.51
2022-11-21T18:39:51.576Z,7.42
2022-11-21T18:41:55.549Z,7.51
2022-11-21T18:44:00.277Z,7.56
2022-11-21T18:46:04.481Z,7.51
2022-11-21T18:48:07.099Z,7.42
2022-11-21T18:50:10.488Z,7.40
2022-11-21T18:52:13.046Z,7.37
2022-11-21T18:54:15.662Z,7.44
2022-11-21T18:56:18.372Z,7.50
2022-11-21T18:58:22.365Z,7.50
2022-11-21T19:00:26.306Z,7.52
2022-11-21T19:02:28.902Z,7.53
2022-11-21T19:04:31.490Z,7.49
2022-11-21T19:06:34.255Z,7.78
2022-11-21T19:08:36.877Z,7.62
2022-11-21T19:10:43.622Z,7.66
2022-11-21T19:12:46.508Z,7.57
2022-11-21T19:14:51.943Z,7.56
2022-11-21T19:16:54.550Z,7.51
2022-11-21T19:19:32.504Z,7.59
2022-11-21T19:21:20.125Z,7.54
2022-11-21T19:23:22.682Z,7.50
2022-11-21T19:25:25.308Z,7.63
2022-11-21T19:27:27.914Z,7.50
2022-11-21T19:29:30.975Z,7.48
2022-11-21T19:31:40.692Z,7.45
2022-11-21T19:33:47.517Z,7.44
2022-11-21T19:35:50.104Z,7.52
2022-11-21T19:37:52.794Z,7.50
2022-11-21T19:39:55.368Z,7.56
2022-11-21T19:41:57.978Z,7.44
2022-11-21T19:44:02.561Z,7.46
2022-11-21T19:46:06.004Z,7.42
2022-11-21T19:48:09.951Z,7.42
2022-11-21T19:50:12.554Z,7.39
2022-11-21T19:52:15.174Z,7.39
2022-11-21T19:54:17.805Z,7.41
2022-11-21T19:56:22.663Z,7.44
2022-11-21T19:58:27.406Z,7.49
2022-11-21T20:00:30.242Z,7.48
2022-11-21T20:02:32.873Z,7.44
2022-11-21T20:04:37.125Z,7.40
2022-11-21T20:06:42.451Z,7.42
2022-11-21T20:08:45.611Z,7.46
2022-11-21T20:10:48.258Z,7.54
2022-11-21T20:12:50.889Z,7.51
2022-11-21T20:14:54.067Z,7.53
2022-11-21T20:16:57.248Z,7.65
2022-11-21T20:19:01.364Z,7.54
2022-11-21T20:21:12.336Z,7.81
2022-11-21T20:23:14.926Z,7.76
2022-11-21T20:25:17.801Z,7.60
2022-11-21T20:27:20.408Z,7.63
2022-11-21T20:29:23.120Z,7.65
2022-11-21T20:31:28.094Z,7.66
2022-11-21T20:33:30.795Z,7.75
2022-11-21T20:35:33.361Z,7.63
2022-11-21T20:37:37.282Z,7.82
2022-11-21T20:39:39.900Z,7.66
2022-11-21T20:41:43.013Z,7.64
2022-11-21T20:44:26.725Z,7.59
2022-11-21T20:46:12.911Z,7.54
2022-11-21T20:48:20.390Z,7.46
2022-11-21T20:51:01.431Z,7.48
2022-11-21T20:55:10.824Z,7.45
2022-11-21T20:57:15.535Z,7.45
2022-11-21T20:59:18.549Z,7.45
2022-11-21T21:01:23.885Z,7.45
2022-11-21T21:03:28.913Z,7.50
2022-11-21T21:05:31.623Z,7.50
2022-11-21T21:07:34.298Z,7.48
2022-11-21T21:09:39.441Z,7.48
2022-11-21T21:11:57.447Z,7.47
2022-11-21T21:14:00.103Z,7.56
2022-11-21T21:16:07.365Z,7.51
2022-11-21T21:18:10.043Z,7.46
2022-11-21T21:20:12.730Z,7.45
2022-11-21T21:22:15.542Z,7.57
2022-11-21T21:24:18.380Z,7.50
2022-11-21T21:26:24.488Z,7.47
2022-11-21T21:28:27.073Z,7.45
2022-11-21T21:30:29.903Z,7.43
2022-11-21T21:32:32.492Z,7.46
2022-11-21T21:34:35.126Z,7.48
2022-11-21T21:36:37.918Z,7.60
2022-11-21T21:38:41.349Z,7.63
2022-11-21T21:40:44.762Z,7.72
2022-11-21T21:42:48.954Z,7.58
2022-11-21T21:44:51.938Z,7.64
2022-11-21T21:46:54.570Z,7.67
2022-11-21T21:48:59.164Z,7.58
2022-11-21T21:51:03.847Z,7.51
2022-11-21T21:53:06.684Z,7.56
2022-11-21T21:55:09.699Z,7.60
2022-11-21T21:57:12.506Z,7.51
2022-11-21T21:59:18.041Z,7.52
2022-11-21T22:01:23.740Z,7.53
2022-11-21T22:03:26.374Z,7.46
2022-11-21T22:05:29.051Z,7.54
2022-11-21T22:07:31.759Z,7.48
2022-11-21T22:09:34.387Z,7.53
2022-11-21T22:11:39.110Z,7.50
2022-11-21T22:13:43.116Z,7.57
2022-11-21T22:15:47.063Z,7.52
2022-11-21T22:17:49.670Z,7.50
2022-11-21T22:19:52.588Z,7.51
2022-11-21T22:21:55.183Z,7.62
2022-11-21T22:26:21.590Z,7.50
2022-11-21T22:28:24.547Z,7.49
2022-11-21T22:30:27.127Z,7.57
2022-11-21T22:32:31.114Z,7.61
2022-11-21T22:34:33.822Z,7.52
2022-11-21T22:36:36.617Z,7.52
2022-11-21T22:38:39.501Z,7.47
2022-11-21T22:40:42.120Z,7.43
2022-11-21T22:42:44.784Z,7.40
2022-11-21T22:44:47.419Z,7.38
2022-11-21T22:46:50.063Z,7.37
2022-11-21T22:48:54.291Z,7.36
2022-11-21T22:50:57.426Z,7.36
2022-11-21T22:53:00.049Z,7.34
2022-11-21T22:55:02.669Z,7.33
2022-11-21T22:57:05.321Z,7.31
2022-11-21T22:59:07.929Z,7.31
2022-11-21T23:01:12.715Z,7.29
2022-11-21T23:03:15.338Z,7.28
2022-11-21T23:05:19.404Z,7.28
2022-11-21T23:07:22.109Z,7.24
2022-11-21T23:09:24.749Z,7.24
2022-11-21T23:11:29.330Z,7.27
2022-11-21T23:13:32.015Z,7.24
2022-11-21T23:15:34.616Z,7.22
2022-11-21T23:17:37.513Z,7.22
2022-11-21T23:19:40.094Z,7.25
2022-11-21T23:21:44.554Z,7.26
2022-11-21T23:23:47.121Z,7.26
2022-11-21T23:25:49.971Z,7.22
2022-11-21T23:27:52.570Z,7.17
2022-11-21T23:29:55.182Z,7.11
2022-11-21T23:31:57.759Z,7.10
2022-11-21T23:34:00.390Z,7.11
2022-11-21T23:36:02.980Z,7.13
2022-11-21T23:38:07.000Z,7.12
2022-11-21T23:40:10.975Z,7.09
2022-11-21T23:42:13.601Z,7.08
2022-11-21T23:44:16.178Z,7.08
2022-11-21T23:46:18.799Z,7.12
2022-11-21T23:48:25.444Z,7.11
2022-11-21T23:50:28.071Z,7.07
2022-11-21T23:52:30.654Z,7.12
2022-11-21T23:54:34.549Z,7.11
2022-11-21T23:56:37.132Z,7.13
2022-11-21T23:58:39.829Z,7.14
